createdAt,value
2019-03-26T00:00:27.552Z,100584.33
2019-03-26T00:02:56.381Z,100597.77
2019-03-26T00:05:24.683Z,100589.68
2019-03-26T00:07:53.493Z,100589.17
2019-03-26T00:10:21.869Z,100597.47
2019-03-26T00:12:50.134Z,100596.89
2019-03-26T00:15:18.370Z,100593.57
2019-03-26T00:17:47.040Z,100591.27
2019-03-26T00:20:15.505Z,100591.64
2019-03-26T00:22:43.817Z,100592.83
2019-03-26T00:25:12.462Z,100594.22
2019-03-26T00:27:40.761Z,100603.03
2019-03-26T00:30:09.431Z,100603.17
2019-03-26T00:32:37.828Z,100605.27
2019-03-26T00:35:06.280Z,100611.53
2019-03-26T00:37:34.708Z,100609.06
2019-03-26T00:40:03.366Z,100619.98
2019-03-26T00:42:33.464Z,100617.36
2019-03-26T00:45:01.809Z,100613.05
2019-03-26T00:47:30.212Z,100620.19
2019-03-26T00:49:58.468Z,100625.66
2019-03-26T00:52:26.793Z,100633.54
2019-03-26T00:54:55.016Z,100640.92
2019-03-26T00:57:23.335Z,100636.67
2019-03-26T00:59:51.638Z,100646.95
2019-03-26T01:02:20.047Z,100646.02
2019-03-26T01:04:48.470Z,100646.27
2019-03-26T01:07:16.843Z,100652.41
2019-03-26T01:09:45.327Z,100653.27
2019-03-26T01:12:14.369Z,100661.64
2019-03-26T01:14:42.615Z,100666.30
2019-03-26T01:17:11.220Z,100665.90
2019-03-26T01:19:41.250Z,100666.67
2019-03-26T01:22:09.642Z,100665.20
2019-03-26T01:24:37.890Z,100666.30
2019-03-26T01:27:06.599Z,100674.30
2019-03-26T01:29:34.941Z,100670.78
2019-03-26T01:32:03.389Z,100668.77
2019-03-26T01:34:31.632Z,100674.02
2019-03-26T01:36:59.952Z,100682.17
2019-03-26T01:39:28.210Z,100682.59
2019-03-26T01:41:56.515Z,100682.79
2019-03-26T01:44:24.812Z,100682.79
2019-03-26T01:46:53.100Z,100686.69
2019-03-26T01:49:21.385Z,100687.96
2019-03-26T01:51:49.672Z,100682.17
2019-03-26T01:54:17.937Z,100686.73
2019-03-26T01:56:49.511Z,100686.98
2019-03-26T01:59:17.901Z,100692.10
2019-03-26T02:01:46.210Z,100694.36
2019-03-26T02:04:14.496Z,100701.70
2019-03-26T02:06:46.240Z,100697.22
2019-03-26T02:09:14.513Z,100699.11
2019-03-26T02:11:42.828Z,100703.81
2019-03-26T02:14:11.183Z,100697.80
2019-03-26T02:16:39.462Z,100704.27
2019-03-26T02:19:07.768Z,100711.68
2019-03-26T02:21:36.164Z,100717.09
2019-03-26T02:24:04.758Z,100720.01
2019-03-26T02:26:33.117Z,100722.55
2019-03-26T02:29:01.528Z,100728.14
2019-03-26T02:31:29.791Z,100731.33
2019-03-26T02:33:58.116Z,100724.74
2019-03-26T02:36:26.453Z,100727.78
2019-03-26T02:38:54.784Z,100728.23
2019-03-26T02:41:23.165Z,100731.23
2019-03-26T02:43:51.432Z,100723.11
2019-03-26T02:46:19.712Z,100730.16
2019-03-26T02:48:48.694Z,100741.26
2019-03-26T02:51:16.980Z,100739.86
2019-03-26T02:53:45.371Z,100744.30
2019-03-26T02:56:13.708Z,100749.87
2019-03-26T02:58:42.040Z,100751.75
2019-03-26T03:01:10.406Z,100746.50
2019-03-26T03:03:38.671Z,100748.19
2019-03-26T03:06:07.299Z,100748.03
2019-03-26T03:08:35.631Z,100748.67
2019-03-26T03:11:04.433Z,100754.18
2019-03-26T03:13:32.691Z,100748.02
2019-03-26T03:16:01.952Z,100746.88
2019-03-26T03:18:30.204Z,100752.47
2019-03-26T03:20:58.566Z,100747.22
2019-03-26T03:23:27.047Z,100745.91
2019-03-26T03:25:55.767Z,100744.59
2019-03-26T03:28:24.164Z,100747.59
2019-03-26T03:30:53.356Z,100747.12
2019-03-26T03:33:21.729Z,100751.35
2019-03-26T03:35:52.723Z,100751.23
2019-03-26T03:38:20.358Z,100758.00
2019-03-26T03:40:48.894Z,100756.59
2019-03-26T03:43:17.885Z,100760.19
2019-03-26T03:45:46.990Z,100770.32
2019-03-26T03:48:15.849Z,100766.30
2019-03-26T03:50:44.825Z,100772.00
2019-03-26T03:53:16.296Z,100772.58
2019-03-26T03:55:46.211Z,100778.73
2019-03-26T03:58:15.302Z,100775.72
2019-03-26T04:00:43.695Z,100779.83
2019-03-26T04:03:12.221Z,100774.20
2019-03-26T04:05:40.753Z,100777.19
2019-03-26T04:08:09.362Z,100785.90
2019-03-26T04:10:37.830Z,100783.06
2019-03-26T04:13:06.368Z,100785.20
2019-03-26T04:15:35.445Z,100783.70
2019-03-26T04:18:04.027Z,100788.98
2019-03-26T04:20:33.407Z,100776.63
2019-03-26T04:23:01.748Z,100780.18
2019-03-26T04:25:30.198Z,100786.55
2019-03-26T04:27:58.725Z,100791.52
2019-03-26T04:30:33.675Z,100793.28
2019-03-26T04:33:02.114Z,100793.84
2019-03-26T04:35:30.795Z,100793.66
2019-03-26T04:37:59.641Z,100794.97
2019-03-26T04:40:28.648Z,100803.95
2019-03-26T04:42:57.120Z,100812.19
2019-03-26T04:45:25.567Z,100815.11
2019-03-26T04:47:53.825Z,100824.55
2019-03-26T04:50:22.276Z,100818.36
2019-03-26T04:52:50.580Z,100819.66
2019-03-26T04:55:18.877Z,100825.64
2019-03-26T04:57:47.120Z,100821.70
2019-03-26T05:00:15.918Z,100823.38
2019-03-26T05:02:44.378Z,100823.87
2019-03-26T05:05:12.897Z,100825.25
2019-03-26T05:07:41.252Z,100819.75
2019-03-26T05:10:13.278Z,100815.70
2019-03-26T05:12:42.190Z,100818.25
2019-03-26T05:15:12.029Z,100814.13
2019-03-26T05:17:40.405Z,100813.83
2019-03-26T05:20:09.361Z,100818.14
2019-03-26T05:22:37.689Z,100822.91
2019-03-26T05:25:07.371Z,100826.73
2019-03-26T05:27:45.281Z,100826.55
2019-03-26T05:30:07.077Z,100827.41
2019-03-26T05:32:35.446Z,100823.09
2019-03-26T05:35:03.962Z,100816.24
2019-03-26T05:37:32.217Z,100821.86
2019-03-26T05:40:00.596Z,100825.60
2019-03-26T05:42:29.541Z,100828.97
2019-03-26T05:44:57.822Z,100835.83
2019-03-26T05:47:26.234Z,100835.34
2019-03-26T05:49:54.550Z,100835.80
2019-03-26T05:52:22.794Z,100831.79
2019-03-26T05:54:51.090Z,100830.30
2019-03-26T05:57:19.312Z,100830.30
2019-03-26T05:59:47.653Z,100836.56
2019-03-26T06:02:17.996Z,100830.00
2019-03-26T06:04:46.160Z,100832.14
2019-03-26T06:07:14.606Z,100830.47
2019-03-26T06:09:43.064Z,100823.42
2019-03-26T06:12:11.330Z,100826.52
2019-03-26T06:14:39.644Z,100827.80
2019-03-26T06:17:07.874Z,100821.05
2019-03-26T06:19:36.292Z,100814.37
2019-03-26T06:22:04.526Z,100826.84
2019-03-26T06:24:32.902Z,100822.73
2019-03-26T06:27:01.395Z,100824.76
2019-03-26T06:29:29.676Z,100843.95
2019-03-26T06:31:58.023Z,100831.03
2019-03-26T06:34:26.535Z,100836.28
2019-03-26T06:37:03.655Z,100837.16
2019-03-26T06:39:31.937Z,100843.36
2019-03-26T06:42:00.300Z,100847.95
2019-03-26T06:44:28.576Z,100845.24
2019-03-26T06:46:56.799Z,100844.89
2019-03-26T06:49:25.120Z,100849.39
2019-03-26T06:51:53.344Z,100848.00
2019-03-26T06:54:21.617Z,100848.28
2019-03-26T06:56:49.857Z,100854.08
2019-03-26T06:59:18.160Z,100842.64
2019-03-26T07:01:46.803Z,100845.66
2019-03-26T07:04:15.114Z,100838.03
2019-03-26T07:06:43.387Z,100841.19
2019-03-26T07:09:11.671Z,100838.50
2019-03-26T07:11:39.982Z,100843.16
2019-03-26T07:14:08.252Z,100846.35
2019-03-26T07:16:36.601Z,100843.51
2019-03-26T07:19:04.861Z,100831.95
2019-03-26T07:21:33.167Z,100833.89
2019-03-26T07:24:01.669Z,100830.72
2019-03-26T07:26:30.122Z,100823.76
2019-03-26T07:28:58.388Z,100827.83
2019-03-26T07:31:26.691Z,100822.54
2019-03-26T07:33:54.950Z,100831.73
2019-03-26T07:36:23.229Z,100832.34
2019-03-26T07:38:55.182Z,100820.94
2019-03-26T07:41:23.486Z,100829.87
2019-03-26T07:43:51.741Z,100830.08
2019-03-26T07:46:20.067Z,100838.95
2019-03-26T07:48:48.494Z,100829.02
2019-03-26T07:51:16.781Z,100826.77
2019-03-26T07:53:44.990Z,100814.94
2019-03-26T07:56:15.105Z,100814.80
2019-03-26T07:58:43.313Z,100801.72
2019-03-26T08:01:11.610Z,100791.03
2019-03-26T08:03:39.822Z,100783.02
2019-03-26T08:06:08.110Z,100793.41
2019-03-26T08:08:36.388Z,100775.20
2019-03-26T08:11:04.747Z,100781.77
2019-03-26T08:13:33.665Z,100776.80
2019-03-26T08:16:01.962Z,100785.58
2019-03-26T08:18:30.180Z,100788.87
2019-03-26T08:20:58.469Z,100801.86
2019-03-26T08:23:26.709Z,100782.62
2019-03-26T08:25:55.118Z,100792.70
2019-03-26T08:28:23.331Z,100780.77
2019-03-26T08:30:51.646Z,100774.45
2019-03-26T08:33:19.914Z,100770.12
2019-03-26T08:35:48.231Z,100759.14
2019-03-26T08:38:16.474Z,100767.52
2019-03-26T08:40:45.678Z,100762.61
2019-03-26T08:43:13.926Z,100756.84
2019-03-26T08:45:42.304Z,100770.74
2019-03-26T08:48:10.833Z,100753.48
2019-03-26T08:50:39.249Z,100763.92
2019-03-26T08:53:07.572Z,100745.50
2019-03-26T08:55:35.888Z,100738.91
2019-03-26T08:58:04.259Z,100750.30
2019-03-26T09:00:32.779Z,100748.13
2019-03-26T09:03:01.039Z,100745.98
2019-03-26T09:05:29.349Z,100757.36
2019-03-26T09:07:57.630Z,100754.25
2019-03-26T09:10:25.889Z,100756.67
2019-03-26T09:12:54.292Z,100746.36
2019-03-26T09:15:22.576Z,100747.55
2019-03-26T09:17:51.000Z,100744.78
2019-03-26T09:20:19.397Z,100750.89
2019-03-26T09:22:47.930Z,100759.86
2019-03-26T09:25:16.324Z,100742.99
2019-03-26T09:27:44.829Z,100745.63
2019-03-26T09:30:15.400Z,100741.19
2019-03-26T09:32:44.210Z,100753.27
2019-03-26T09:35:12.932Z,100734.03
2019-03-26T09:37:41.286Z,100734.05
2019-03-26T09:40:12.307Z,100734.64
2019-03-26T09:42:40.918Z,100735.61
2019-03-26T09:45:10.345Z,100725.17
2019-03-26T09:47:38.726Z,100722.42
2019-03-26T09:50:10.615Z,100714.73
2019-03-26T09:52:42.356Z,100726.96
2019-03-26T09:55:10.822Z,100715.36
2019-03-26T09:57:39.326Z,100720.99
2019-03-26T10:00:08.469Z,100703.46
2019-03-26T10:02:36.869Z,100706.80
2019-03-26T10:05:07.162Z,100705.83
2019-03-26T10:07:35.560Z,100706.66
2019-03-26T10:10:05.172Z,100708.16
2019-03-26T10:12:33.834Z,100699.92
2019-03-26T10:15:07.730Z,100695.81
2019-03-26T10:17:36.570Z,100704.84
2019-03-26T10:20:05.480Z,100696.56
2019-03-26T10:22:34.290Z,100703.98
2019-03-26T10:25:02.759Z,100698.37
2019-03-26T10:27:31.178Z,100704.23
2019-03-26T10:29:59.438Z,100703.62
2019-03-26T10:32:27.723Z,100717.36
2019-03-26T10:34:56.099Z,100703.80
2019-03-26T10:37:24.771Z,100702.61
2019-03-26T10:39:53.157Z,100700.11
2019-03-26T10:42:21.481Z,100704.67
2019-03-26T10:44:50.236Z,100699.59
2019-03-26T10:47:18.536Z,100697.45
2019-03-26T10:49:46.785Z,100693.23
2019-03-26T10:52:15.078Z,100695.41
2019-03-26T10:54:43.463Z,100688.45
2019-03-26T10:57:11.851Z,100683.53
2019-03-26T10:59:40.216Z,100686.75
2019-03-26T11:02:08.934Z,100697.52
2019-03-26T11:04:37.166Z,100693.70
2019-03-26T11:07:05.557Z,100692.42
2019-03-26T11:09:34.399Z,100688.34
2019-03-26T11:12:02.819Z,100681.14
2019-03-26T11:14:32.355Z,100688.70
2019-03-26T11:17:11.603Z,100705.97
2019-03-26T11:19:40.042Z,100710.17
2019-03-26T11:22:08.691Z,100708.14
2019-03-26T11:24:37.063Z,100711.64
2019-03-26T11:27:05.463Z,100711.25
2019-03-26T11:29:33.762Z,100714.98
2019-03-26T11:32:01.983Z,100703.00
2019-03-26T11:34:30.263Z,100730.58
2019-03-26T11:36:58.526Z,100713.19
2019-03-26T11:39:32.679Z,100720.62
2019-03-26T11:41:56.952Z,100746.52
2019-03-26T11:44:25.347Z,100746.66
2019-03-26T11:46:53.751Z,100757.68
2019-03-26T11:49:22.067Z,100746.89
2019-03-26T11:51:50.321Z,100751.67
2019-03-26T11:54:18.740Z,100759.76
2019-03-26T11:56:47.391Z,100757.46
2019-03-26T11:59:15.757Z,100745.86
2019-03-26T12:01:43.990Z,100741.87
2019-03-26T12:04:12.307Z,100747.16
2019-03-26T12:06:40.535Z,100749.86
2019-03-26T12:09:09.025Z,100752.86
2019-03-26T12:11:38.135Z,100728.03
2019-03-26T12:14:07.412Z,100748.65
2019-03-26T12:16:35.690Z,100759.29
2019-03-26T12:19:06.297Z,100748.30
2019-03-26T12:21:34.690Z,100753.11
2019-03-26T12:24:03.283Z,100756.38
2019-03-26T12:26:31.737Z,100752.73
2019-03-26T12:29:00.160Z,100747.89
2019-03-26T12:31:28.816Z,100728.81
2019-03-26T12:33:57.210Z,100729.50
2019-03-26T12:36:39.161Z,100733.27
2019-03-26T12:38:55.679Z,100725.73
2019-03-26T12:41:23.956Z,100739.63
2019-03-26T12:43:52.697Z,100739.40
2019-03-26T12:46:21.149Z,100735.09
2019-03-26T12:48:49.427Z,100737.54
2019-03-26T12:51:17.719Z,100730.59
2019-03-26T12:53:46.012Z,100731.91
2019-03-26T12:56:14.853Z,100732.41
2019-03-26T12:58:43.246Z,100713.25
2019-03-26T13:01:11.574Z,100718.41
2019-03-26T13:03:39.917Z,100703.89
2019-03-26T13:06:08.176Z,100707.84
2019-03-26T13:08:37.234Z,100727.77
2019-03-26T13:11:05.737Z,100701.66
2019-03-26T13:13:34.131Z,100690.06
2019-03-26T13:16:02.517Z,100691.02
2019-03-26T13:18:30.768Z,100706.47
2019-03-26T13:21:01.283Z,100688.48
2019-03-26T13:23:30.155Z,100687.44
2019-03-26T13:25:58.570Z,100688.05
2019-03-26T13:28:26.819Z,100668.50
2019-03-26T13:30:55.089Z,100662.07
2019-03-26T13:33:23.346Z,100666.74
2019-03-26T13:35:52.342Z,100677.19
2019-03-26T13:38:20.617Z,100664.73
2019-03-26T13:40:49.084Z,100667.63
2019-03-26T13:43:19.344Z,100653.73
2019-03-26T13:45:47.858Z,100649.89
2019-03-26T13:48:16.145Z,100646.66
2019-03-26T13:50:44.576Z,100648.32
2019-03-26T13:53:12.926Z,100644.02
2019-03-26T13:55:41.359Z,100633.10
2019-03-26T13:58:09.596Z,100649.28
2019-03-26T14:00:39.500Z,100649.89
2019-03-26T14:03:08.542Z,100647.24
2019-03-26T14:05:36.942Z,100651.69
2019-03-26T14:08:05.336Z,100708.59
2019-03-26T14:10:40.708Z,100663.05
2019-03-26T14:13:04.533Z,100663.30
2019-03-26T14:15:33.456Z,100650.95
2019-03-26T14:18:02.586Z,100656.24
2019-03-26T14:20:30.905Z,100658.63
2019-03-26T14:23:03.306Z,100639.94
2019-03-26T14:25:31.698Z,100642.34
2019-03-26T14:28:00.542Z,100645.20
2019-03-26T14:30:41.839Z,100648.19
2019-03-26T14:33:10.299Z,100640.33
2019-03-26T14:35:40.572Z,100643.28
2019-03-26T14:38:09.038Z,100641.36
2019-03-26T14:40:37.540Z,100624.94
2019-03-26T14:43:06.383Z,100629.64
2019-03-26T14:45:34.811Z,100676.80
2019-03-26T14:48:03.451Z,100633.03
2019-03-26T14:50:32.548Z,100622.41
2019-03-26T14:53:00.949Z,100629.36
2019-03-26T14:55:29.371Z,100624.71
2019-03-26T14:57:57.627Z,100600.12
2019-03-26T15:00:26.036Z,100624.33
2019-03-26T15:02:54.279Z,100649.15
2019-03-26T15:05:22.571Z,100641.88
2019-03-26T15:07:50.911Z,100629.65
2019-03-26T15:10:19.501Z,100616.56
2019-03-26T15:12:47.856Z,100627.50
2019-03-26T15:15:16.192Z,100617.20
2019-03-26T15:17:44.587Z,100634.81
2019-03-26T15:20:13.024Z,100613.44
2019-03-26T15:22:41.297Z,100620.03
2019-03-26T15:25:09.724Z,100619.95
2019-03-26T15:27:38.013Z,100618.23
2019-03-26T15:30:07.345Z,100626.64
2019-03-26T15:32:35.686Z,100627.58
2019-03-26T15:35:04.933Z,100636.45
2019-03-26T15:37:33.243Z,100630.22
2019-03-26T15:40:01.678Z,100619.20
2019-03-26T15:42:29.978Z,100623.05
2019-03-26T15:44:58.201Z,100632.02
2019-03-26T15:47:26.623Z,100627.45
2019-03-26T15:49:54.952Z,100625.11
2019-03-26T15:52:23.232Z,100623.16
2019-03-26T15:54:51.467Z,100616.69
2019-03-26T15:57:19.747Z,100614.54
2019-03-26T15:59:47.977Z,100611.41
2019-03-26T16:02:16.268Z,100608.66
2019-03-26T16:04:44.557Z,100608.43
2019-03-26T16:07:13.048Z,100616.68
2019-03-26T16:09:41.901Z,100607.92
2019-03-26T16:12:10.245Z,100606.61
2019-03-26T16:14:38.518Z,100607.12
2019-03-26T16:17:06.829Z,100608.17
2019-03-26T16:19:36.567Z,100610.71
2019-03-26T16:22:05.138Z,100617.64
2019-03-26T16:24:33.495Z,100617.16
2019-03-26T16:27:01.878Z,100639.59
2019-03-26T16:29:30.698Z,100633.23
2019-03-26T16:31:59.295Z,100635.73
2019-03-26T16:34:27.515Z,100635.98
2019-03-26T16:36:59.696Z,100635.85
2019-03-26T16:39:26.050Z,100632.73
2019-03-26T16:41:54.348Z,100633.23
2019-03-26T16:44:22.581Z,100632.88
2019-03-26T16:46:50.874Z,100645.33
2019-03-26T16:49:19.218Z,100643.78
2019-03-26T16:51:47.642Z,100643.05
2019-03-26T16:54:15.848Z,100641.48
2019-03-26T16:56:44.149Z,100634.55
2019-03-26T16:59:12.496Z,100640.91
2019-03-26T17:01:41.701Z,100645.22
2019-03-26T17:04:10.072Z,100640.19
2019-03-26T17:06:39.387Z,100650.47
2019-03-26T17:09:07.992Z,100641.51
2019-03-26T17:11:36.400Z,100644.97
2019-03-26T17:14:04.770Z,100645.44
2019-03-26T17:16:33.009Z,100644.01
2019-03-26T17:19:01.409Z,100648.80
2019-03-26T17:21:29.675Z,100648.44
2019-03-26T17:23:57.945Z,100663.67
2019-03-26T17:26:26.187Z,100654.81
2019-03-26T17:28:54.528Z,100656.11
2019-03-26T17:31:23.369Z,100644.61
2019-03-26T17:33:51.744Z,100648.80
2019-03-26T17:36:20.092Z,100668.11
2019-03-26T17:38:48.377Z,100673.38
2019-03-26T17:41:16.683Z,100681.51
2019-03-26T17:43:45.162Z,100685.00
2019-03-26T17:46:13.638Z,100696.62
2019-03-26T17:48:42.824Z,100697.33
2019-03-26T17:51:11.069Z,100702.00
2019-03-26T17:53:39.451Z,100706.67
2019-03-26T17:56:08.220Z,100719.02
2019-03-26T17:58:36.512Z,100706.41
2019-03-26T18:01:04.948Z,100725.09
2019-03-26T18:03:33.874Z,100726.17
2019-03-26T18:06:02.137Z,100739.23
2019-03-26T18:08:30.440Z,100744.44
2019-03-26T18:10:58.744Z,100755.27
2019-03-26T18:13:27.063Z,100778.63
2019-03-26T18:15:55.288Z,100784.61
2019-03-26T18:18:23.599Z,100776.94
2019-03-26T18:20:51.880Z,100786.34
2019-03-26T18:23:20.175Z,100775.92
2019-03-26T18:25:48.418Z,100767.18
2019-03-26T18:28:16.713Z,100783.11
2019-03-26T18:30:45.017Z,100783.84
2019-03-26T18:33:13.402Z,100801.30
2019-03-26T18:35:41.885Z,100810.77
2019-03-26T18:38:10.281Z,100821.29
2019-03-26T18:40:38.535Z,100821.28
2019-03-26T18:43:07.026Z,100815.58
2019-03-26T18:45:35.346Z,100804.43
2019-03-26T18:48:03.696Z,100797.88
2019-03-26T18:50:32.191Z,100799.13
2019-03-26T18:53:00.557Z,100803.66
2019-03-26T18:55:28.996Z,100812.56
2019-03-26T18:57:57.366Z,100813.23
2019-03-26T19:00:36.748Z,100812.93
2019-03-26T19:03:05.631Z,100810.09
2019-03-26T19:05:35.318Z,100816.23
2019-03-26T19:08:03.689Z,100827.20
2019-03-26T19:10:32.525Z,100821.59
2019-03-26T19:13:00.946Z,100835.02
2019-03-26T19:15:29.400Z,100831.48
2019-03-26T19:17:57.970Z,100830.17
2019-03-26T19:20:26.610Z,100832.22
2019-03-26T19:22:54.936Z,100837.55
2019-03-26T19:25:23.360Z,100847.37
2019-03-26T19:27:51.665Z,100841.38
2019-03-26T19:30:21.785Z,100837.23
2019-03-26T19:32:50.357Z,100831.36
2019-03-26T19:35:18.882Z,100839.98
2019-03-26T19:37:49.174Z,100850.33
2019-03-26T19:40:17.478Z,100855.20
2019-03-26T19:42:47.135Z,100855.62
2019-03-26T19:45:15.728Z,100856.81
2019-03-26T19:47:44.103Z,100872.98
2019-03-26T19:50:13.208Z,100878.61
2019-03-26T19:52:41.663Z,100880.13
2019-03-26T19:55:10.338Z,100875.13
2019-03-26T19:57:38.779Z,100886.95
2019-03-26T20:00:09.263Z,100880.75
2019-03-26T20:02:37.533Z,100883.98
2019-03-26T20:05:06.541Z,100891.09
2019-03-26T20:07:35.069Z,100900.98
2019-03-26T20:10:04.488Z,100902.28
2019-03-26T20:12:32.902Z,100902.86
2019-03-26T20:15:01.399Z,100907.91
2019-03-26T20:17:29.740Z,100903.11
2019-03-26T20:19:58.121Z,100903.23
2019-03-26T20:22:26.608Z,100908.28
2019-03-26T20:24:55.518Z,100915.42
2019-03-26T20:27:25.880Z,100920.38
2019-03-26T20:29:54.546Z,100926.61
2019-03-26T20:32:23.148Z,100929.64
2019-03-26T20:34:51.454Z,100937.92
2019-03-26T20:37:20.609Z,100931.83
2019-03-26T20:39:51.391Z,100941.94
2019-03-26T20:42:19.765Z,100945.91
2019-03-26T20:44:48.167Z,100941.69
2019-03-26T20:47:16.649Z,100945.14
2019-03-26T20:49:45.037Z,100949.19
2019-03-26T20:52:13.329Z,100955.39
2019-03-26T20:54:41.623Z,100954.63
2019-03-26T20:57:09.929Z,100968.77
2019-03-26T20:59:38.495Z,100968.72
2019-03-26T21:02:06.818Z,100971.52
2019-03-26T21:04:35.818Z,100969.15
2019-03-26T21:07:07.087Z,100980.52
2019-03-26T21:09:35.845Z,100984.84
2019-03-26T21:12:04.258Z,100985.21
2019-03-26T21:14:32.744Z,100984.35
2019-03-26T21:17:01.158Z,100992.90
2019-03-26T21:19:29.534Z,101002.34
2019-03-26T21:21:57.918Z,100998.23
2019-03-26T21:27:05.897Z,101003.38
2019-03-26T21:29:34.247Z,101013.65
2019-03-26T21:32:02.567Z,101013.88
2019-03-26T21:34:31.029Z,101014.16
2019-03-26T21:36:59.636Z,101011.93
2019-03-26T21:39:27.890Z,101021.78
2019-03-26T21:41:56.222Z,101028.73
2019-03-26T21:44:24.505Z,101031.56
2019-03-26T21:46:52.786Z,101037.08
2019-03-26T21:49:21.070Z,101038.52
2019-03-26T21:51:49.533Z,101038.19
2019-03-26T21:54:17.779Z,101042.12
2019-03-26T21:56:46.079Z,101044.23
2019-03-26T21:59:14.448Z,101044.69
2019-03-26T22:01:42.728Z,101043.64
2019-03-26T22:04:10.953Z,101054.89
2019-03-26T22:06:39.857Z,101057.73
2019-03-26T22:09:08.291Z,101055.97
2019-03-26T22:11:49.218Z,101061.59
2019-03-26T22:14:17.266Z,101062.32
2019-03-26T22:16:41.550Z,101054.63
2019-03-26T22:19:27.767Z,101067.84
2019-03-26T22:21:46.962Z,101065.24
2019-03-26T22:24:17.152Z,101067.59
2019-03-26T22:26:45.573Z,101069.84
2019-03-26T22:29:13.806Z,101074.05
2019-03-26T22:31:42.108Z,101076.11
2019-03-26T22:34:10.494Z,101084.66
2019-03-26T22:36:38.777Z,101088.23
2019-03-26T22:39:07.730Z,101083.99
2019-03-26T22:41:36.251Z,101081.66
2019-03-26T22:44:04.661Z,101086.16
2019-03-26T22:46:33.416Z,101094.22
2019-03-26T22:49:01.754Z,101103.22
2019-03-26T22:51:30.234Z,101103.89
2019-03-26T22:53:58.860Z,101109.03
2019-03-26T22:56:28.068Z,101118.98
2019-03-26T22:58:56.664Z,101114.02
2019-03-26T23:01:25.314Z,101119.16
2019-03-26T23:03:53.812Z,101112.39
2019-03-26T23:06:22.553Z,101120.09
2019-03-26T23:08:51.119Z,101118.03
2019-03-26T23:11:20.046Z,101131.85
2019-03-26T23:13:48.925Z,101133.91
2019-03-26T23:16:17.391Z,101136.25
2019-03-26T23:18:45.859Z,101137.36
2019-03-26T23:21:14.313Z,101146.94
2019-03-26T23:23:42.848Z,101141.60
2019-03-26T23:26:11.488Z,101143.74
2019-03-26T23:28:40.576Z,101142.43
2019-03-26T23:31:09.131Z,101146.30
2019-03-26T23:33:37.682Z,101150.23
2019-03-26T23:36:06.153Z,101149.75
2019-03-26T23:38:34.651Z,101150.98
2019-03-26T23:41:03.265Z,101155.76
2019-03-26T23:43:31.772Z,101153.50
2019-03-26T23:46:00.274Z,101158.30
2019-03-26T23:48:28.851Z,101160.94
2019-03-26T23:50:57.574Z,101157.07
2019-03-26T23:53:26.200Z,101159.14
2019-03-26T23:55:54.739Z,101159.14
2019-03-26T23:58:23.290Z,101168.83
